sensor_id;sensor_type;location;lat;lon;timestamp;pressure;altitude;pressure_sealevel;temperature;humidity
34237;BME280;20501;45.956;13.632;2022-09-30T00:02:19;99434.38;;;13.57;88.18
34237;BME280;20501;45.956;13.632;2022-09-30T00:04:44;99430.47;;;13.44;88.14
34237;BME280;20501;45.956;13.632;2022-09-30T00:07:10;99428.94;;;13.87;88.51
34237;BME280;20501;45.956;13.632;2022-09-30T00:09:35;99427.91;;;13.73;88.29
34237;BME280;20501;45.956;13.632;2022-09-30T00:12:01;99430.91;;;13.78;87.31
34237;BME280;20501;45.956;13.632;2022-09-30T00:14:26;99435.31;;;13.64;88.74
34237;BME280;20501;45.956;13.632;2022-09-30T00:16:51;99431.78;;;13.49;88.51
34237;BME280;20501;45.956;13.632;2022-09-30T00:19:17;99419.41;;;13.76;89.65
34237;BME280;20501;45.956;13.632;2022-09-30T00:21:43;99410.88;;;14.37;87.34
34237;BME280;20501;45.956;13.632;2022-09-30T00:24:09;99405.13;;;14.26;87.27
34237;BME280;20501;45.956;13.632;2022-09-30T00:26:34;99401.47;;;13.60;87.82
34237;BME280;20501;45.956;13.632;2022-09-30T00:29:00;99412.19;;;13.38;88.51
34237;BME280;20501;45.956;13.632;2022-09-30T00:31:29;99414.91;;;13.38;89.63
34237;BME280;20501;45.956;13.632;2022-09-30T00:33:55;99427.81;;;13.36;89.58
34237;BME280;20501;45.956;13.632;2022-09-30T00:36:45;99434.38;;;13.57;88.81
34237;BME280;20501;45.956;13.632;2022-09-30T00:39:24;99442.69;;;13.55;88.20
34237;BME280;20501;45.956;13.632;2022-09-30T00:41:53;99429.44;;;13.45;88.00
34237;BME280;20501;45.956;13.632;2022-09-30T00:47:03;99421.84;;;14.07;87.99
34237;BME280;20501;45.956;13.632;2022-09-30T00:49:30;99400.00;;;13.79;87.82
34237;BME280;20501;45.956;13.632;2022-09-30T00:51:57;99396.28;;;14.38;86.62
34237;BME280;20501;45.956;13.632;2022-09-30T00:54:28;99386.75;;;14.93;82.04
34237;BME280;20501;45.956;13.632;2022-09-30T00:57:00;99402.34;;;14.84;83.87
34237;BME280;20501;45.956;13.632;2022-09-30T00:59:46;99396.16;;;14.47;85.46
34237;BME280;20501;45.956;13.632;2022-09-30T01:02:12;99404.28;;;14.90;83.38
34237;BME280;20501;45.956;13.632;2022-09-30T01:04:39;99409.28;;;15.15;82.59
34237;BME280;20501;45.956;13.632;2022-09-30T01:07:06;99413.44;;;14.82;80.88
34237;BME280;20501;45.956;13.632;2022-09-30T01:09:33;99419.56;;;14.48;83.61
34237;BME280;20501;45.956;13.632;2022-09-30T01:12:08;99412.72;;;13.93;85.48
34237;BME280;20501;45.956;13.632;2022-09-30T01:14:36;99431.09;;;13.76;86.00
34237;BME280;20501;45.956;13.632;2022-09-30T01:19:51;99429.69;;;13.51;86.21
34237;BME280;20501;45.956;13.632;2022-09-30T01:35:44;99449.31;;;13.38;85.33
34237;BME280;20501;45.956;13.632;2022-09-30T01:38:31;99442.69;;;13.55;85.15
34237;BME280;20501;45.956;13.632;2022-09-30T01:41:10;99427.00;;;13.66;85.61
34237;BME280;20501;45.956;13.632;2022-09-30T01:46:37;99434.81;;;14.49;84.56
34237;BME280;20501;45.956;13.632;2022-09-30T01:51:57;99440.41;;;14.62;80.31
34237;BME280;20501;45.956;13.632;2022-09-30T01:57:10;99442.66;;;15.02;81.23
34237;BME280;20501;45.956;13.632;2022-09-30T02:00:10;99451.56;;;14.89;81.97
34237;BME280;20501;45.956;13.632;2022-09-30T02:02:40;99457.00;;;15.17;81.13
34237;BME280;20501;45.956;13.632;2022-09-30T02:05:12;99452.25;;;15.61;79.45
34237;BME280;20501;45.956;13.632;2022-09-30T02:07:50;99465.94;;;15.11;80.41
34237;BME280;20501;45.956;13.632;2022-09-30T02:10:25;99461.94;;;14.79;81.77
34237;BME280;20501;45.956;13.632;2022-09-30T02:12:57;99471.22;;;13.96;83.85
34237;BME280;20501;45.956;13.632;2022-09-30T02:15:34;99459.13;;;14.14;84.34
34237;BME280;20501;45.956;13.632;2022-09-30T02:18:24;99461.78;;;14.87;82.62
34237;BME280;20501;45.956;13.632;2022-09-30T02:20:56;99475.06;;;14.60;81.21
34237;BME280;20501;45.956;13.632;2022-09-30T02:23:35;99477.50;;;13.67;83.47
34237;BME280;20501;45.956;13.632;2022-09-30T02:26:14;99481.25;;;13.96;85.60
34237;BME280;20501;45.956;13.632;2022-09-30T02:28:45;99488.09;;;14.28;81.84
34237;BME280;20501;45.956;13.632;2022-09-30T02:31:14;99485.53;;;14.05;82.05
34237;BME280;20501;45.956;13.632;2022-09-30T02:33:48;99491.44;;;14.45;81.63
34237;BME280;20501;45.956;13.632;2022-09-30T02:36:30;99498.09;;;14.43;81.47
34237;BME280;20501;45.956;13.632;2022-09-30T02:39:07;99502.13;;;14.47;81.70
34237;BME280;20501;45.956;13.632;2022-09-30T02:41:46;99505.97;;;14.74;82.19
34237;BME280;20501;45.956;13.632;2022-09-30T02:44:14;99519.91;;;14.86;80.39
34237;BME280;20501;45.956;13.632;2022-09-30T02:46:51;99528.97;;;14.20;82.18
34237;BME280;20501;45.956;13.632;2022-09-30T02:49:32;99526.38;;;14.48;81.56
34237;BME280;20501;45.956;13.632;2022-09-30T02:57:18;99550.47;;;14.36;84.30
34237;BME280;20501;45.956;13.632;2022-09-30T02:59:50;99553.81;;;14.90;82.41
34237;BME280;20501;45.956;13.632;2022-09-30T03:02:17;99551.13;;;14.38;82.74
34237;BME280;20501;45.956;13.632;2022-09-30T03:04:44;99548.94;;;14.49;83.81
34237;BME280;20501;45.956;13.632;2022-09-30T03:07:10;99561.44;;;14.95;82.11
34237;BME280;20501;45.956;13.632;2022-09-30T03:09:36;99558.13;;;15.21;81.17
34237;BME280;20501;45.956;13.632;2022-09-30T03:23:26;99582.72;;;14.24;84.00
34237;BME280;20501;45.956;13.632;2022-09-30T03:29:30;99588.78;;;14.93;82.35
34237;BME280;20501;45.956;13.632;2022-09-30T03:31:46;99592.09;;;14.37;81.99
34237;BME280;20501;45.956;13.632;2022-09-30T03:34:19;99598.81;;;14.56;83.22
34237;BME280;20501;45.956;13.632;2022-09-30T03:39:41;99606.16;;;13.96;84.62
34237;BME280;20501;45.956;13.632;2022-09-30T03:42:16;99603.13;;;14.50;84.42
34237;BME280;20501;45.956;13.632;2022-09-30T03:44:55;99612.78;;;15.26;81.18
34237;BME280;20501;45.956;13.632;2022-09-30T03:47:24;99614.38;;;14.99;81.99
34237;BME280;20501;45.956;13.632;2022-09-30T03:49:55;99618.84;;;15.50;79.85
34237;BME280;20501;45.956;13.632;2022-09-30T03:52:24;99621.97;;;15.47;80.16
34237;BME280;20501;45.956;13.632;2022-09-30T03:54:53;99618.81;;;14.18;84.47
34237;BME280;20501;45.956;13.632;2022-09-30T03:57:19;99618.59;;;14.35;83.89
34237;BME280;20501;45.956;13.632;2022-09-30T03:59:44;99620.63;;;14.48;82.55
34237;BME280;20501;45.956;13.632;2022-09-30T04:02:10;99615.06;;;14.19;84.24
34237;BME280;20501;45.956;13.632;2022-09-30T04:04:41;99614.94;;;14.94;82.35
34237;BME280;20501;45.956;13.632;2022-09-30T04:07:10;99615.81;;;14.80;81.42
34237;BME280;20501;45.956;13.632;2022-09-30T04:09:36;99613.53;;;14.98;82.06
34237;BME280;20501;45.956;13.632;2022-09-30T04:12:02;99618.56;;;14.65;81.67
34237;BME280;20501;45.956;13.632;2022-09-30T04:14:28;99618.41;;;14.51;82.23
34237;BME280;20501;45.956;13.632;2022-09-30T04:16:53;99604.28;;;14.41;84.16
34237;BME280;20501;45.956;13.632;2022-09-30T04:19:18;99619.16;;;14.45;83.39
34237;BME280;20501;45.956;13.632;2022-09-30T04:21:44;99623.47;;;14.24;83.84
34237;BME280;20501;45.956;13.632;2022-09-30T04:24:09;99626.44;;;14.75;82.97
34237;BME280;20501;45.956;13.632;2022-09-30T04:26:35;99626.38;;;15.26;80.94
34237;BME280;20501;45.956;13.632;2022-09-30T04:29:00;99637.75;;;14.93;81.90
34237;BME280;20501;45.956;13.632;2022-09-30T04:31:26;99630.00;;;14.60;82.83
34237;BME280;20501;45.956;13.632;2022-09-30T04:33:51;99641.34;;;14.34;83.87
34237;BME280;20501;45.956;13.632;2022-09-30T04:36:16;99644.00;;;14.72;83.49
34237;BME280;20501;45.956;13.632;2022-09-30T04:38:42;99642.75;;;15.11;81.44
34237;BME280;20501;45.956;13.632;2022-09-30T04:41:12;99633.78;;;15.32;80.45
34237;BME280;20501;45.956;13.632;2022-09-30T04:43:41;99649.63;;;15.51;79.91
34237;BME280;20501;45.956;13.632;2022-09-30T04:46:09;99640.88;;;15.33;80.30
34237;BME280;20501;45.956;13.632;2022-09-30T04:48:34;99653.50;;;15.20;80.91
34237;BME280;20501;45.956;13.632;2022-09-30T04:51:00;99655.59;;;14.21;83.59
34237;BME280;20501;45.956;13.632;2022-09-30T04:53:25;99665.44;;;14.52;83.09
34237;BME280;20501;45.956;13.632;2022-09-30T04:55:57;99662.03;;;15.31;81.05
34237;BME280;20501;45.956;13.632;2022-09-30T04:58:23;99657.47;;;15.39;80.47
34237;BME280;20501;45.956;13.632;2022-09-30T05:00:49;99652.22;;;14.79;82.41
34237;BME280;20501;45.956;13.632;2022-09-30T05:03:14;99657.16;;;14.90;81.49
34237;BME280;20501;45.956;13.632;2022-09-30T05:05:42;99655.78;;;15.38;80.67
34237;BME280;20501;45.956;13.632;2022-09-30T05:08:08;99655.84;;;15.23;80.83
34237;BME280;20501;45.956;13.632;2022-09-30T05:10:34;99656.13;;;14.91;81.91
34237;BME280;20501;45.956;13.632;2022-09-30T05:12:59;99659.47;;;15.52;79.93
34237;BME280;20501;45.956;13.632;2022-09-30T05:15:25;99659.66;;;15.07;80.92
34237;BME280;20501;45.956;13.632;2022-09-30T05:17:52;99672.16;;;15.23;81.24
34237;BME280;20501;45.956;13.632;2022-09-30T05:20:18;99683.78;;;14.65;81.64
34237;BME280;20501;45.956;13.632;2022-09-30T05:22:43;99691.94;;;14.35;82.92
34237;BME280;20501;45.956;13.632;2022-09-30T05:25:09;99695.69;;;14.34;84.03
34237;BME280;20501;45.956;13.632;2022-09-30T05:27:34;99696.09;;;14.76;82.75
34237;BME280;20501;45.956;13.632;2022-09-30T05:30:00;99698.31;;;15.02;81.88
34237;BME280;20501;45.956;13.632;2022-09-30T05:32:26;99704.50;;;15.11;81.14
34237;BME280;20501;45.956;13.632;2022-09-30T05:34:52;99716.97;;;14.90;82.01
34237;BME280;20501;45.956;13.632;2022-09-30T05:37:20;99711.03;;;15.16;80.59
34237;BME280;20501;45.956;13.632;2022-09-30T05:39:45;99720.16;;;15.67;79.30
34237;BME280;20501;45.956;13.632;2022-09-30T05:42:11;99722.88;;;15.09;80.69
34237;BME280;20501;45.956;13.632;2022-09-30T05:44:36;99727.63;;;15.22;80.01
34237;BME280;20501;45.956;13.632;2022-09-30T05:47:01;99728.56;;;15.14;80.83
34237;BME280;20501;45.956;13.632;2022-09-30T05:49:27;99743.78;;;14.93;81.50
34237;BME280;20501;45.956;13.632;2022-09-30T05:51:52;99749.03;;;14.80;82.00
34237;BME280;20501;45.956;13.632;2022-09-30T05:54:18;99754.31;;;14.28;83.66
34237;BME280;20501;45.956;13.632;2022-09-30T05:56:43;99763.75;;;14.02;85.22
34237;BME280;20501;45.956;13.632;2022-09-30T05:59:09;99758.34;;;14.17;83.95
34237;BME280;20501;45.956;13.632;2022-09-30T06:01:34;99760.75;;;14.65;83.13
34237;BME280;20501;45.956;13.632;2022-09-30T06:04:00;99756.84;;;14.83;82.26
34237;BME280;20501;45.956;13.632;2022-09-30T06:06:26;99772.75;;;14.56;82.50
34237;BME280;20501;45.956;13.632;2022-09-30T06:08:51;99783.09;;;13.99;82.94
34237;BME280;20501;45.956;13.632;2022-09-30T06:11:19;99792.84;;;14.32;83.46
34237;BME280;20501;45.956;13.632;2022-09-30T06:13:46;99786.84;;;13.98;83.35
34237;BME280;20501;45.956;13.632;2022-09-30T06:16:13;99799.53;;;14.59;83.43
34237;BME280;20501;45.956;13.632;2022-09-30T06:18:39;99800.13;;;15.29;80.83
34237;BME280;20501;45.956;13.632;2022-09-30T06:21:07;99788.28;;;14.62;81.31
34237;BME280;20501;45.956;13.632;2022-09-30T06:23:33;99790.31;;;14.83;82.32
34237;BME280;20501;45.956;13.632;2022-09-30T06:26:00;99802.97;;;14.91;82.17
34237;BME280;20501;45.956;13.632;2022-09-30T06:28:26;99809.84;;;14.64;82.46
34237;BME280;20501;45.956;13.632;2022-09-30T06:30:52;99810.19;;;14.69;82.41
34237;BME280;20501;45.956;13.632;2022-09-30T06:33:18;99816.28;;;14.48;82.94
34237;BME280;20501;45.956;13.632;2022-09-30T06:35:43;99826.91;;;15.11;80.75
34237;BME280;20501;45.956;13.632;2022-09-30T06:38:12;99833.34;;;15.25;80.91
34237;BME280;20501;45.956;13.632;2022-09-30T06:40:40;99832.22;;;15.34;80.75
34237;BME280;20501;45.956;13.632;2022-09-30T06:43:05;99834.72;;;15.51;79.91
34237;BME280;20501;45.956;13.632;2022-09-30T06:45:31;99842.22;;;15.63;79.29
34237;BME280;20501;45.956;13.632;2022-09-30T06:48:01;99856.72;;;15.19;80.02
34237;BME280;20501;45.956;13.632;2022-09-30T06:50:31;99855.28;;;15.53;79.93
34237;BME280;20501;45.956;13.632;2022-09-30T06:53:02;99847.28;;;14.62;82.29
34237;BME280;20501;45.956;13.632;2022-09-30T06:55:28;99854.56;;;14.99;82.16
34237;BME280;20501;45.956;13.632;2022-09-30T06:57:55;99851.44;;;15.17;81.64
34237;BME280;20501;45.956;13.632;2022-09-30T07:00:22;99845.06;;;14.80;83.36
34237;BME280;20501;45.956;13.632;2022-09-30T07:02:48;99851.53;;;15.39;80.83
34237;BME280;20501;45.956;13.632;2022-09-30T07:05:14;99859.38;;;14.74;84.26
34237;BME280;20501;45.956;13.632;2022-09-30T07:07:40;99866.38;;;14.92;83.37
34237;BME280;20501;45.956;13.632;2022-09-30T07:10:06;99863.84;;;15.05;83.11
34237;BME280;20501;45.956;13.632;2022-09-30T07:12:32;99872.75;;;14.37;86.69
34237;BME280;20501;45.956;13.632;2022-09-30T07:14:58;99874.19;;;14.33;87.45
34237;BME280;20501;45.956;13.632;2022-09-30T07:17:25;99876.50;;;14.60;86.43
34237;BME280;20501;45.956;13.632;2022-09-30T07:19:50;99869.91;;;14.77;85.21
34237;BME280;20501;45.956;13.632;2022-09-30T07:22:17;99867.75;;;14.88;84.53
34237;BME280;20501;45.956;13.632;2022-09-30T07:24:51;99878.59;;;15.11;83.27
34237;BME280;20501;45.956;13.632;2022-09-30T07:27:17;99880.63;;;14.79;85.82
34237;BME280;20501;45.956;13.632;2022-09-30T07:29:43;99888.31;;;15.50;81.17
34237;BME280;20501;45.956;13.632;2022-09-30T07:32:10;99900.59;;;15.31;83.93
34237;BME280;20501;45.956;13.632;2022-09-30T07:34:36;99905.88;;;15.32;82.44
34237;BME280;20501;45.956;13.632;2022-09-30T07:37:02;99904.91;;;15.40;82.31
34237;BME280;20501;45.956;13.632;2022-09-30T07:39:28;99903.50;;;14.84;87.36
34237;BME280;20501;45.956;13.632;2022-09-30T07:41:55;99901.72;;;15.37;82.35
34237;BME280;20501;45.956;13.632;2022-09-30T07:44:21;99911.72;;;15.81;80.35
34237;BME280;20501;45.956;13.632;2022-09-30T07:46:50;99909.47;;;16.00;79.44
34237;BME280;20501;45.956;13.632;2022-09-30T07:49:16;99914.94;;;15.70;81.02
34237;BME280;20501;45.956;13.632;2022-09-30T07:52:00;99914.38;;;15.74;81.04
34237;BME280;20501;45.956;13.632;2022-09-30T07:54:30;99926.50;;;15.87;81.81
34237;BME280;20501;45.956;13.632;2022-09-30T07:56:57;99928.16;;;16.03;81.03
34237;BME280;20501;45.956;13.632;2022-09-30T07:59:23;99928.44;;;16.08;79.39
34237;BME280;20501;45.956;13.632;2022-09-30T08:01:49;99928.44;;;15.93;80.22
34237;BME280;20501;45.956;13.632;2022-09-30T08:04:16;99932.50;;;15.82;82.62
34237;BME280;20501;45.956;13.632;2022-09-30T08:06:48;99936.25;;;15.81;80.78
34237;BME280;20501;45.956;13.632;2022-09-30T08:09:16;99945.66;;;15.63;81.59
34237;BME280;20501;45.956;13.632;2022-09-30T08:11:43;99936.47;;;15.65;81.83
34237;BME280;20501;45.956;13.632;2022-09-30T08:14:14;99947.06;;;15.89;80.55
34237;BME280;20501;45.956;13.632;2022-09-30T08:16:40;99954.41;;;15.89;80.41
34237;BME280;20501;45.956;13.632;2022-09-30T08:19:05;99951.69;;;15.44;84.06
34237;BME280;20501;45.956;13.632;2022-09-30T08:21:31;99956.25;;;15.43;84.39
34237;BME280;20501;45.956;13.632;2022-09-30T08:23:57;99956.91;;;15.15;84.89
34237;BME280;20501;45.956;13.632;2022-09-30T08:26:23;99970.44;;;15.24;84.37
34237;BME280;20501;45.956;13.632;2022-09-30T08:28:48;99967.69;;;15.24;84.34
34237;BME280;20501;45.956;13.632;2022-09-30T08:33:42;99967.69;;;15.24;84.75
34237;BME280;20501;45.956;13.632;2022-09-30T08:36:21;99974.28;;;15.59;83.13
34237;BME280;20501;45.956;13.632;2022-09-30T08:38:47;99975.03;;;15.68;82.20
34237;BME280;20501;45.956;13.632;2022-09-30T08:46:47;99987.63;;;15.54;83.89
34237;BME280;20501;45.956;13.632;2022-09-30T08:52:19;99992.22;;;15.39;86.33
34237;BME280;20501;45.956;13.632;2022-09-30T08:54:51;99994.84;;;15.47;85.66
34237;BME280;20501;45.956;13.632;2022-09-30T08:57:18;99986.22;;;15.58;85.46
34237;BME280;20501;45.956;13.632;2022-09-30T09:02:20;99999.75;;;15.97;85.01
34237;BME280;20501;45.956;13.632;2022-09-30T09:04:48;99997.94;;;16.04;83.93
34237;BME280;20501;45.956;13.632;2022-09-30T09:07:43;100010.16;;;16.08;85.54
34237;BME280;20501;45.956;13.632;2022-09-30T09:10:39;100011.47;;;16.12;83.52
34237;BME280;20501;45.956;13.632;2022-09-30T09:13:18;100021.31;;;16.13;83.34
34237;BME280;20501;45.956;13.632;2022-09-30T09:18:50;100032.22;;;16.13;83.25
34237;BME280;20501;45.956;13.632;2022-09-30T09:23:59;100029.25;;;16.08;82.00
34237;BME280;20501;45.956;13.632;2022-09-30T09:26:29;100027.81;;;16.12;82.91
34237;BME280;20501;45.956;13.632;2022-09-30T09:31:54;100018.41;;;16.30;82.28
34237;BME280;20501;45.956;13.632;2022-09-30T09:34:23;100019.75;;;16.40;82.73
34237;BME280;20501;45.956;13.632;2022-09-30T09:39:54;100034.88;;;16.43;82.45
34237;BME280;20501;45.956;13.632;2022-09-30T09:45:12;100040.09;;;16.38;83.76
34237;BME280;20501;45.956;13.632;2022-09-30T09:47:40;100049.28;;;16.37;83.55
34237;BME280;20501;45.956;13.632;2022-09-30T09:50:20;100052.28;;;16.42;83.85
34237;BME280;20501;45.956;13.632;2022-09-30T09:53:00;100061.09;;;16.44;84.59
34237;BME280;20501;45.956;13.632;2022-09-30T09:55:29;100067.22;;;16.46;82.52
34237;BME280;20501;45.956;13.632;2022-09-30T09:58:23;100058.38;;;16.44;84.57
34237;BME280;20501;45.956;13.632;2022-09-30T10:00:50;100060.94;;;16.46;83.66
34237;BME280;20501;45.956;13.632;2022-09-30T10:03:24;100053.22;;;16.49;84.45
34237;BME280;20501;45.956;13.632;2022-09-30T10:06:04;100051.78;;;16.53;84.40
34237;BME280;20501;45.956;13.632;2022-09-30T10:08:33;100061.94;;;16.60;83.43
34237;BME280;20501;45.956;13.632;2022-09-30T10:11:02;100057.50;;;16.59;83.08
34237;BME280;20501;45.956;13.632;2022-09-30T10:13:41;100066.44;;;16.67;84.09
34237;BME280;20501;45.956;13.632;2022-09-30T10:18:51;100069.84;;;16.76;82.22
34237;BME280;20501;45.956;13.632;2022-09-30T10:21:22;100067.53;;;16.73;82.64
34237;BME280;20501;45.956;13.632;2022-09-30T10:23:48;100072.13;;;16.73;81.86
34237;BME280;20501;45.956;13.632;2022-09-30T10:31:25;100064.22;;;16.78;82.51
34237;BME280;20501;45.956;13.632;2022-09-30T10:34:10;100055.84;;;16.79;82.28
34237;BME280;20501;45.956;13.632;2022-09-30T10:36:40;100051.28;;;16.86;81.06
34237;BME280;20501;45.956;13.632;2022-09-30T10:39:20;100050.53;;;16.93;80.73
34237;BME280;20501;45.956;13.632;2022-09-30T10:41:49;100060.03;;;16.97;80.67
34237;BME280;20501;45.956;13.632;2022-09-30T10:44:21;100068.75;;;16.92;81.42
34237;BME280;20501;45.956;13.632;2022-09-30T10:46:50;100060.44;;;16.94;81.97
34237;BME280;20501;45.956;13.632;2022-09-30T10:49:36;100067.06;;;16.91;80.77
34237;BME280;20501;45.956;13.632;2022-09-30T10:52:05;100054.09;;;16.93;81.29
34237;BME280;20501;45.956;13.632;2022-09-30T10:54:45;100054.97;;;16.94;79.69
34237;BME280;20501;45.956;13.632;2022-09-30T10:59:56;100057.28;;;16.97;80.23
34237;BME280;20501;45.956;13.632;2022-09-30T11:02:42;100069.06;;;16.97;80.02
34237;BME280;20501;45.956;13.632;2022-09-30T11:05:21;100069.31;;;17.02;79.80
34237;BME280;20501;45.956;13.632;2022-09-30T11:11:18;100090.56;;;17.07;80.57
34237;BME280;20501;45.956;13.632;2022-09-30T11:19:47;100087.50;;;17.17;79.57
34237;BME280;20501;45.956;13.632;2022-09-30T11:22:27;100086.34;;;17.26;79.91
34237;BME280;20501;45.956;13.632;2022-09-30T11:24:54;100082.84;;;17.32;77.74
34237;BME280;20501;45.956;13.632;2022-09-30T11:27:42;100087.13;;;17.20;77.79
34237;BME280;20501;45.956;13.632;2022-09-30T11:30:32;100083.53;;;17.20;78.50
34237;BME280;20501;45.956;13.632;2022-09-30T11:35:53;100085.75;;;17.31;79.21
34237;BME280;20501;45.956;13.632;2022-09-30T11:41:19;100096.81;;;17.23;77.70
34237;BME280;20501;45.956;13.632;2022-09-30T12:00:18;100111.34;;;17.08;79.27
34237;BME280;20501;45.956;13.632;2022-09-30T12:03:09;100113.84;;;17.03;80.04
34237;BME280;20501;45.956;13.632;2022-09-30T12:05:43;100119.00;;;16.98;80.01
34237;BME280;20501;45.956;13.632;2022-09-30T12:08:18;100118.88;;;17.06;78.93
34237;BME280;20501;45.956;13.632;2022-09-30T12:10:54;100112.59;;;17.06;79.88
34237;BME280;20501;45.956;13.632;2022-09-30T12:13:28;100107.13;;;17.06;79.56
34237;BME280;20501;45.956;13.632;2022-09-30T12:15:56;100105.13;;;17.14;78.08
34237;BME280;20501;45.956;13.632;2022-09-30T12:18:33;100107.22;;;17.12;79.20
34237;BME280;20501;45.956;13.632;2022-09-30T12:21:07;100112.47;;;17.14;80.14
34237;BME280;20501;45.956;13.632;2022-09-30T12:23:45;100104.63;;;17.04;80.95
34237;BME280;20501;45.956;13.632;2022-09-30T12:26:13;100098.13;;;17.05;82.15
34237;BME280;20501;45.956;13.632;2022-09-30T12:40:36;100105.72;;;16.73;82.29
34237;BME280;20501;45.956;13.632;2022-09-30T12:46:12;100139.88;;;16.54;84.41
34237;BME280;20501;45.956;13.632;2022-09-30T12:48:59;100130.22;;;16.51;83.03
34237;BME280;20501;45.956;13.632;2022-09-30T12:54:01;100128.53;;;16.50;85.65
34237;BME280;20501;45.956;13.632;2022-09-30T12:56:30;100134.06;;;16.27;87.29
34237;BME280;20501;45.956;13.632;2022-09-30T12:58:57;100132.84;;;16.15;87.99
34237;BME280;20501;45.956;13.632;2022-09-30T13:01:35;100122.91;;;16.07;87.75
34237;BME280;20501;45.956;13.632;2022-09-30T13:14:40;100158.13;;;15.93;89.70
34237;BME280;20501;45.956;13.632;2022-09-30T13:19:39;100166.47;;;15.92;89.30
34237;BME280;20501;45.956;13.632;2022-09-30T13:25:13;100177.09;;;16.32;86.00
34237;BME280;20501;45.956;13.632;2022-09-30T13:27:52;100185.00;;;16.12;88.44
34237;BME280;20501;45.956;13.632;2022-09-30T13:32:48;100188.75;;;16.11;85.42
34237;BME280;20501;45.956;13.632;2022-09-30T13:43:10;100189.44;;;16.43;87.39
34237;BME280;20501;45.956;13.632;2022-09-30T13:45:41;100196.84;;;16.34;84.51
34237;BME280;20501;45.956;13.632;2022-09-30T13:48:17;100199.78;;;16.32;87.06
34237;BME280;20501;45.956;13.632;2022-09-30T13:50:46;100199.56;;;16.34;83.94
34237;BME280;20501;45.956;13.632;2022-09-30T13:53:23;100192.63;;;16.16;87.50
34237;BME280;20501;45.956;13.632;2022-09-30T13:55:51;100195.72;;;16.13;86.71
34237;BME280;20501;45.956;13.632;2022-09-30T14:04:25;100211.03;;;16.14;84.94
34237;BME280;20501;45.956;13.632;2022-09-30T14:07:17;100206.03;;;16.03;88.67
34237;BME280;20501;45.956;13.632;2022-09-30T14:10:14;100203.63;;;16.38;84.44
34237;BME280;20501;45.956;13.632;2022-09-30T14:23:22;100215.44;;;16.15;84.56
34237;BME280;20501;45.956;13.632;2022-09-30T14:28:36;100211.59;;;16.09;85.19
34237;BME280;20501;45.956;13.632;2022-09-30T14:31:03;100211.13;;;16.06;84.27
34237;BME280;20501;45.956;13.632;2022-09-30T14:33:47;100215.56;;;16.37;82.56
34237;BME280;20501;45.956;13.632;2022-09-30T14:36:19;100221.59;;;16.32;82.62
34237;BME280;20501;45.956;13.632;2022-09-30T14:38:53;100218.28;;;16.37;82.50
34237;BME280;20501;45.956;13.632;2022-09-30T14:41:22;100224.97;;;16.34;82.58
34237;BME280;20501;45.956;13.632;2022-09-30T14:43:58;100231.09;;;15.98;85.37
34237;BME280;20501;45.956;13.632;2022-09-30T14:46:36;100234.19;;;15.95;85.52
34237;BME280;20501;45.956;13.632;2022-09-30T14:49:13;100229.31;;;16.05;84.08
34237;BME280;20501;45.956;13.632;2022-09-30T14:51:41;100233.88;;;16.28;82.70
34237;BME280;20501;45.956;13.632;2022-09-30T14:54:26;100238.31;;;16.29;82.70
34237;BME280;20501;45.956;13.632;2022-09-30T14:56:56;100228.91;;;16.32;82.87
34237;BME280;20501;45.956;13.632;2022-09-30T14:59:24;100236.13;;;16.24;82.94
34237;BME280;20501;45.956;13.632;2022-09-30T15:01:54;100233.03;;;16.28;83.25
34237;BME280;20501;45.956;13.632;2022-09-30T15:04:31;100245.56;;;16.37;82.47
34237;BME280;20501;45.956;13.632;2022-09-30T15:06:58;100260.88;;;16.38;84.46
34237;BME280;20501;45.956;13.632;2022-09-30T15:09:32;100275.06;;;15.95;88.52
34237;BME280;20501;45.956;13.632;2022-09-30T15:12:21;100271.66;;;16.31;83.06
34237;BME280;20501;45.956;13.632;2022-09-30T15:14:55;100289.47;;;16.04;85.68
34237;BME280;20501;45.956;13.632;2022-09-30T15:19:55;100298.59;;;16.11;84.69
34237;BME280;20501;45.956;13.632;2022-09-30T15:22:21;100301.97;;;16.13;84.59
34237;BME280;20501;45.956;13.632;2022-09-30T15:24:48;100308.94;;;16.16;84.22
34237;BME280;20501;45.956;13.632;2022-09-30T15:27:20;100313.47;;;16.23;84.41
34237;BME280;20501;45.956;13.632;2022-09-30T15:30:02;100311.63;;;16.39;82.94
34237;BME280;20501;45.956;13.632;2022-09-30T15:32:30;100311.72;;;16.07;85.01
34237;BME280;20501;45.956;13.632;2022-09-30T15:35:06;100309.91;;;16.00;85.63
34237;BME280;20501;45.956;13.632;2022-09-30T15:37:35;100299.00;;;15.53;88.21
34237;BME280;20501;45.956;13.632;2022-09-30T15:40:01;100302.13;;;15.42;88.92
34237;BME280;20501;45.956;13.632;2022-09-30T15:43:00;100294.09;;;15.72;86.31
34237;BME280;20501;45.956;13.632;2022-09-30T15:45:35;100289.81;;;15.77;85.51
34237;BME280;20501;45.956;13.632;2022-09-30T15:50:43;100300.44;;;15.96;84.36
34237;BME280;20501;45.956;13.632;2022-09-30T15:55:43;100304.63;;;16.21;82.71
34237;BME280;20501;45.956;13.632;2022-09-30T15:58:34;100310.72;;;16.08;83.07
34237;BME280;20501;45.956;13.632;2022-09-30T16:03:55;100309.31;;;16.13;82.67
34237;BME280;20501;45.956;13.632;2022-09-30T16:06:51;100312.59;;;15.85;84.49
34237;BME280;20501;45.956;13.632;2022-09-30T16:12:03;100313.81;;;15.19;86.90
34237;BME280;20501;45.956;13.632;2022-09-30T16:14:53;100316.69;;;15.49;85.63
34237;BME280;20501;45.956;13.632;2022-09-30T16:17:30;100324.34;;;15.22;86.44
34237;BME280;20501;45.956;13.632;2022-09-30T16:19:59;100326.16;;;15.61;84.70
34237;BME280;20501;45.956;13.632;2022-09-30T16:27:34;100337.63;;;15.80;83.98